createdAt,value
2022-12-23T00:01:26.082Z,1.00
2022-12-23T00:03:53.562Z,1.08
2022-12-23T00:06:21.439Z,0.90
2022-12-23T00:08:48.643Z,0.85
2022-12-23T00:11:18.027Z,0.93
2022-12-23T00:14:04.274Z,1.00
2022-12-23T00:16:31.676Z,1.17
2022-12-23T00:18:58.881Z,1.10
2022-12-23T00:21:26.169Z,0.80
2022-12-23T00:23:53.319Z,0.68
2022-12-23T00:26:24.614Z,0.80
2022-12-23T00:28:52.150Z,0.80
2022-12-23T00:31:21.080Z,0.90
2022-12-23T00:33:49.561Z,1.08
2022-12-23T00:36:20.910Z,0.65
2022-12-23T00:39:08.427Z,1.00
2022-12-23T00:41:54.811Z,1.48
2022-12-23T00:44:22.099Z,0.98
2022-12-23T00:46:49.315Z,1.00
2022-12-23T00:49:37.977Z,1.30
2022-12-23T00:52:05.744Z,1.65
2022-12-23T00:54:32.955Z,1.20
2022-12-23T00:57:00.609Z,0.80
2022-12-23T00:59:27.812Z,0.90
2022-12-23T01:02:14.169Z,1.35
2022-12-23T01:05:00.238Z,1.23
2022-12-23T01:07:27.424Z,1.05
2022-12-23T01:09:54.569Z,0.77
2022-12-23T01:12:21.804Z,1.48
2022-12-23T01:14:49.204Z,0.70
2022-12-23T01:17:16.699Z,0.90
2022-12-23T01:19:44.031Z,0.90
2022-12-23T01:22:11.240Z,0.77
2022-12-23T01:24:38.416Z,0.80
2022-12-23T01:27:05.569Z,1.35
2022-12-23T01:29:32.844Z,1.33
2022-12-23T01:32:00.113Z,0.77
2022-12-23T01:34:32.501Z,0.90
2022-12-23T01:37:01.694Z,1.00
2022-12-23T01:39:28.832Z,1.05
2022-12-23T01:42:14.946Z,0.70
2022-12-23T01:44:50.040Z,0.85
2022-12-23T01:47:22.267Z,0.85
2022-12-23T01:49:50.065Z,0.90
2022-12-23T01:52:17.239Z,1.00
2022-12-23T01:54:45.254Z,1.35
2022-12-23T01:57:12.766Z,0.90
2022-12-23T01:59:59.153Z,1.35
2022-12-23T02:02:45.708Z,1.35
2022-12-23T02:05:13.204Z,1.15
2022-12-23T02:07:59.147Z,1.15
2022-12-23T02:10:29.207Z,1.30
2022-12-23T02:13:29.102Z,1.27
2022-12-23T02:16:19.026Z,0.80
2022-12-23T02:18:48.904Z,0.90
2022-12-23T02:21:18.668Z,1.25
2022-12-23T02:23:52.028Z,1.27
2022-12-23T02:26:37.734Z,1.00
2022-12-23T02:29:07.467Z,1.45
2022-12-23T02:31:53.167Z,1.10
2022-12-23T02:34:31.435Z,1.08
2022-12-23T02:37:07.270Z,1.20
2022-12-23T02:39:37.781Z,1.10
2022-12-23T02:42:08.450Z,2.90
2022-12-23T02:45:00.106Z,1.33
2022-12-23T02:47:33.947Z,0.80
2022-12-23T02:50:04.344Z,0.75
2022-12-23T02:52:33.288Z,0.52
2022-12-23T02:55:03.841Z,0.50
2022-12-23T02:57:34.358Z,0.40
2022-12-23T03:00:03.362Z,1.08
2022-12-23T03:02:35.358Z,0.57
2022-12-23T03:05:02.699Z,0.70
2022-12-23T03:07:39.469Z,0.50
2022-12-23T03:10:15.147Z,0.50
2022-12-23T03:12:48.410Z,0.60
2022-12-23T03:15:25.264Z,0.70
2022-12-23T03:18:03.848Z,0.25
2022-12-23T03:20:36.965Z,0.40
2022-12-23T03:23:04.109Z,0.30
2022-12-23T03:25:36.470Z,0.30
2022-12-23T03:28:12.531Z,0.50
2022-12-23T03:30:41.414Z,0.40
2022-12-23T03:33:17.482Z,0.50
2022-12-23T03:35:48.310Z,0.47
2022-12-23T03:38:17.945Z,0.52
2022-12-23T03:40:50.434Z,0.38
2022-12-23T03:43:43.409Z,0.38
2022-12-23T03:46:16.564Z,0.68
2022-12-23T03:48:45.964Z,0.60
2022-12-23T03:51:15.191Z,0.50
2022-12-23T03:53:48.082Z,0.68
2022-12-23T03:56:23.841Z,0.40
2022-12-23T03:58:56.934Z,0.38
2022-12-23T04:01:32.192Z,0.35
2022-12-23T04:04:04.596Z,0.50
2022-12-23T04:06:35.845Z,0.30
2022-12-23T04:09:03.790Z,0.40
2022-12-23T04:11:31.015Z,0.50
2022-12-23T04:13:58.231Z,0.57
2022-12-23T04:16:25.514Z,0.40
2022-12-23T04:18:52.783Z,0.50
2022-12-23T04:21:19.956Z,0.30
2022-12-23T04:23:47.167Z,0.70
2022-12-23T04:26:14.329Z,0.45
2022-12-23T04:28:41.499Z,0.65
2022-12-23T04:31:08.686Z,0.63
2022-12-23T04:33:35.891Z,0.70
2022-12-23T04:36:03.247Z,0.50
2022-12-23T04:38:30.436Z,0.47
2022-12-23T04:40:57.598Z,0.40
2022-12-23T04:43:24.779Z,0.73
2022-12-23T04:45:52.449Z,0.32
2022-12-23T04:48:20.036Z,0.52
2022-12-23T04:50:47.247Z,0.40
2022-12-23T04:53:14.487Z,0.40
2022-12-23T04:55:41.695Z,0.50
2022-12-23T04:58:08.840Z,0.40
2022-12-23T05:00:39.762Z,0.60
2022-12-23T05:03:07.512Z,0.60
2022-12-23T05:05:34.809Z,0.40
2022-12-23T05:08:06.017Z,0.63
2022-12-23T05:10:33.356Z,0.43
2022-12-23T05:13:00.528Z,0.60
2022-12-23T05:15:27.683Z,0.50
2022-12-23T05:17:54.825Z,0.50
2022-12-23T05:20:21.986Z,0.40
2022-12-23T05:22:49.113Z,0.43
2022-12-23T05:25:16.361Z,0.50
2022-12-23T05:27:43.540Z,0.60
2022-12-23T05:30:10.968Z,0.60
2022-12-23T05:32:39.287Z,0.45
2022-12-23T05:35:06.947Z,0.60
2022-12-23T05:37:34.083Z,0.30
2022-12-23T05:40:01.232Z,0.40
2022-12-23T05:42:28.530Z,0.40
2022-12-23T05:44:55.674Z,0.52
2022-12-23T05:47:22.941Z,0.60
2022-12-23T05:49:50.613Z,0.50
2022-12-23T05:52:17.812Z,0.50
2022-12-23T05:54:44.994Z,0.50
2022-12-23T05:57:12.132Z,0.43
2022-12-23T05:59:39.582Z,0.70
2022-12-23T06:02:06.883Z,0.50
2022-12-23T06:04:34.245Z,0.40
2022-12-23T06:07:01.408Z,0.50
2022-12-23T06:09:28.548Z,0.57
2022-12-23T06:11:57.847Z,0.55
2022-12-23T06:14:29.008Z,0.77
2022-12-23T06:16:56.462Z,0.60
2022-12-23T06:19:23.585Z,0.80
2022-12-23T06:21:50.762Z,0.75
2022-12-23T06:24:17.972Z,1.08
2022-12-23T06:26:45.151Z,1.10
2022-12-23T06:29:12.360Z,1.10
2022-12-23T06:31:39.657Z,1.15
2022-12-23T06:34:06.884Z,0.90
2022-12-23T06:36:34.036Z,1.50
2022-12-23T06:39:01.228Z,1.17
2022-12-23T06:41:28.490Z,1.17
2022-12-23T06:43:55.703Z,1.02
2022-12-23T06:46:22.943Z,1.40
2022-12-23T06:48:50.201Z,1.30
2022-12-23T06:51:17.373Z,0.70
2022-12-23T06:53:44.912Z,1.00
2022-12-23T06:56:12.098Z,0.90
2022-12-23T06:58:39.229Z,1.10
2022-12-23T07:01:06.658Z,1.10
2022-12-23T07:03:33.923Z,0.95
2022-12-23T07:06:01.082Z,1.17
2022-12-23T07:08:28.242Z,1.50
2022-12-23T07:11:03.320Z,1.52
2022-12-23T07:13:30.780Z,1.80
2022-12-23T07:15:57.983Z,1.33
2022-12-23T07:18:25.768Z,1.63
2022-12-23T07:20:53.131Z,1.60
2022-12-23T07:23:20.299Z,2.30
2022-12-23T07:25:47.416Z,2.17
2022-12-23T07:28:14.567Z,2.58
2022-12-23T07:30:41.846Z,2.08
2022-12-23T07:33:09.141Z,2.85
2022-12-23T07:35:36.471Z,2.95
2022-12-23T07:38:03.704Z,4.72
2022-12-23T07:40:30.854Z,3.05
2022-12-23T07:42:58.977Z,3.03
2022-12-23T07:45:26.945Z,3.42
2022-12-23T07:47:55.171Z,3.33
2022-12-23T07:50:22.990Z,3.65
2022-12-23T07:52:50.297Z,2.92
2022-12-23T07:55:17.550Z,2.50
2022-12-23T07:57:44.698Z,2.30
2022-12-23T08:00:14.044Z,1.90
2022-12-23T08:02:41.484Z,2.15
2022-12-23T08:05:09.018Z,2.35
2022-12-23T08:07:36.415Z,1.48
2022-12-23T08:10:04.510Z,1.70
2022-12-23T08:12:31.647Z,1.55
2022-12-23T08:14:58.943Z,1.23
2022-12-23T08:17:30.465Z,1.00
2022-12-23T08:19:57.724Z,0.63
2022-12-23T08:22:24.984Z,0.60
2022-12-23T08:24:52.731Z,0.80
2022-12-23T08:27:20.233Z,0.50
2022-12-23T08:29:47.413Z,0.40
2022-12-23T08:32:14.575Z,0.70
2022-12-23T08:34:41.744Z,0.40
2022-12-23T08:37:08.902Z,0.40
2022-12-23T08:39:36.205Z,1.25
2022-12-23T08:42:04.071Z,0.80
2022-12-23T08:44:32.566Z,0.50
2022-12-23T08:46:59.815Z,0.43
2022-12-23T08:49:26.971Z,0.40
2022-12-23T08:51:54.156Z,0.10
2022-12-23T08:54:22.168Z,0.10
2022-12-23T08:56:49.328Z,0.10
2022-12-23T08:59:19.441Z,0.20
2022-12-23T09:01:47.832Z,0.30
2022-12-23T09:04:15.411Z,0.70
2022-12-23T09:06:43.720Z,0.60
2022-12-23T09:09:12.104Z,0.50
2022-12-23T09:11:39.298Z,0.70
2022-12-23T09:14:08.698Z,0.40
2022-12-23T09:16:36.036Z,0.52
2022-12-23T09:19:03.779Z,0.95
2022-12-23T09:21:31.029Z,1.35
2022-12-23T09:23:58.171Z,0.90
2022-12-23T09:26:26.758Z,1.10
2022-12-23T09:28:54.462Z,0.70
2022-12-23T09:31:22.211Z,0.95
2022-12-23T09:33:50.327Z,0.88
2022-12-23T09:36:18.072Z,1.40
2022-12-23T09:38:45.408Z,1.30
2022-12-23T09:41:26.892Z,1.05
2022-12-23T09:43:59.131Z,1.33
2022-12-23T09:46:28.009Z,1.60
2022-12-23T09:49:11.651Z,1.92
2022-12-23T09:51:38.809Z,1.83
2022-12-23T09:54:16.685Z,1.73
2022-12-23T09:57:02.854Z,1.35
2022-12-23T09:59:48.730Z,1.83
2022-12-23T10:02:18.930Z,1.98
2022-12-23T10:04:55.700Z,3.63
2022-12-23T10:07:26.297Z,1.42
2022-12-23T10:09:55.303Z,2.17
2022-12-23T10:12:40.353Z,2.10
2022-12-23T10:15:19.947Z,1.67
2022-12-23T10:17:47.580Z,2.72
2022-12-23T10:20:18.676Z,2.47
2022-12-23T10:22:47.220Z,1.92
2022-12-23T10:25:14.523Z,2.08
2022-12-23T10:27:42.699Z,3.97
2022-12-23T10:30:51.554Z,3.67
2022-12-23T10:33:05.886Z,2.38
2022-12-23T10:35:36.029Z,2.35
2022-12-23T10:38:03.208Z,2.30
2022-12-23T10:40:35.747Z,2.42
2022-12-23T10:43:22.617Z,2.65
2022-12-23T10:45:58.668Z,1.83
2022-12-23T10:48:33.057Z,2.25
2022-12-23T10:51:18.387Z,1.85
2022-12-23T10:53:45.568Z,3.63
2022-12-23T10:56:13.451Z,1.15
2022-12-23T10:58:45.828Z,2.42
2022-12-23T11:01:26.051Z,2.38
2022-12-23T11:03:59.897Z,2.38
2022-12-23T11:06:33.107Z,2.60
2022-12-23T11:09:03.144Z,2.72
2022-12-23T11:11:48.851Z,3.05
2022-12-23T11:14:30.187Z,3.40
2022-12-23T11:16:57.382Z,3.20
2022-12-23T11:19:24.535Z,3.47
2022-12-23T11:21:55.609Z,4.05
2022-12-23T11:24:23.200Z,3.45
2022-12-23T11:26:51.981Z,3.22
2022-12-23T11:29:23.267Z,4.55
2022-12-23T11:31:50.637Z,4.53
2022-12-23T11:34:19.285Z,4.82
2022-12-23T11:37:03.585Z,4.97
2022-12-23T11:39:35.842Z,3.70
2022-12-23T11:42:06.860Z,5.68
2022-12-23T11:44:45.129Z,5.45
2022-12-23T11:47:25.133Z,8.38
2022-12-23T11:49:54.286Z,5.05
2022-12-23T11:52:23.015Z,5.20
2022-12-23T11:54:55.644Z,5.43
2022-12-23T11:59:50.837Z,7.63
2022-12-23T12:02:39.165Z,8.13
2022-12-23T12:05:22.517Z,5.55
2022-12-23T12:07:50.704Z,6.70
2022-12-23T12:10:19.370Z,6.15
2022-12-23T12:12:51.307Z,8.73
2022-12-23T12:15:40.396Z,7.13
2022-12-23T12:18:08.838Z,6.35
2022-12-23T12:20:46.421Z,7.63
2022-12-23T12:23:28.468Z,5.63
2022-12-23T12:25:58.080Z,6.27
2022-12-23T12:28:26.476Z,6.30
2022-12-23T12:30:59.387Z,6.55
2022-12-23T12:33:31.856Z,3.95
2022-12-23T12:36:07.852Z,6.28
2022-12-23T12:38:36.892Z,6.43
2022-12-23T12:41:09.462Z,4.90
2022-12-23T12:43:43.295Z,5.43
2022-12-23T12:46:10.495Z,4.00
2022-12-23T12:48:49.548Z,4.72
2022-12-23T12:51:23.824Z,5.50
2022-12-23T12:54:11.317Z,4.55
2022-12-23T12:56:44.828Z,4.10
2022-12-23T12:59:19.374Z,5.28
2022-12-23T13:01:51.440Z,4.97
2022-12-23T13:04:38.332Z,4.60
2022-12-23T13:07:21.336Z,5.07
2022-12-23T13:09:55.247Z,4.55
2022-12-23T13:12:31.179Z,5.03
2022-12-23T13:14:58.473Z,5.05
2022-12-23T13:17:27.560Z,4.40
2022-12-23T13:20:15.432Z,5.18
2022-12-23T13:22:43.425Z,5.22
2022-12-23T13:25:10.570Z,5.57
2022-12-23T13:27:42.630Z,6.15
2022-12-23T13:30:14.462Z,4.60
2022-12-23T13:32:47.869Z,3.70
2022-12-23T13:35:15.335Z,5.10
2022-12-23T13:37:52.335Z,4.80
2022-12-23T13:40:25.388Z,5.45
2022-12-23T13:42:56.301Z,5.22
2022-12-23T13:45:33.732Z,5.75
2022-12-23T13:48:04.845Z,4.13
2022-12-23T13:50:36.198Z,6.40
2022-12-23T13:53:10.913Z,4.85
2022-12-23T13:55:53.162Z,4.65
2022-12-23T13:58:24.926Z,4.18
2022-12-23T14:01:04.159Z,4.43
2022-12-23T14:03:35.279Z,5.35
2022-12-23T14:06:22.566Z,4.07
2022-12-23T14:08:50.296Z,4.13
2022-12-23T14:11:21.612Z,6.03
2022-12-23T14:13:51.958Z,6.10
2022-12-23T14:16:28.303Z,5.22
2022-12-23T14:19:04.707Z,5.78
2022-12-23T14:21:47.484Z,6.05
2022-12-23T14:24:32.470Z,6.40
2022-12-23T14:27:14.712Z,4.22
2022-12-23T14:29:44.988Z,5.07
2022-12-23T14:32:21.601Z,5.80
2022-12-23T14:35:24.552Z,3.95
2022-12-23T14:38:10.012Z,4.85
2022-12-23T14:40:40.275Z,6.25
2022-12-23T14:43:22.996Z,4.53
2022-12-23T14:48:35.393Z,4.85
2022-12-23T14:51:14.602Z,5.35
2022-12-23T14:53:53.963Z,5.50
2022-12-23T14:56:30.126Z,4.95
2022-12-23T14:59:00.240Z,4.88
2022-12-23T15:01:27.627Z,5.35
2022-12-23T15:04:01.314Z,5.95
2022-12-23T15:06:31.811Z,4.25
2022-12-23T15:08:59.431Z,5.28
2022-12-23T15:11:28.697Z,5.05
2022-12-23T15:13:56.658Z,5.25
2022-12-23T15:16:31.737Z,5.75
2022-12-23T15:19:12.998Z,6.38
2022-12-23T15:21:40.146Z,5.28
2022-12-23T15:24:13.412Z,4.95
2022-12-23T15:26:51.819Z,3.30
2022-12-23T15:29:27.955Z,3.60
2022-12-23T15:31:57.272Z,5.60
2022-12-23T15:34:26.142Z,4.10
2022-12-23T15:36:54.711Z,5.00
2022-12-23T15:39:43.712Z,4.57
2022-12-23T15:42:27.430Z,5.15
2022-12-23T15:44:55.008Z,4.40
2022-12-23T15:47:22.284Z,5.65
2022-12-23T15:49:49.526Z,4.07
2022-12-23T15:52:20.361Z,3.95
2022-12-23T15:55:04.606Z,4.18
2022-12-23T15:57:32.205Z,4.10
2022-12-23T15:59:59.961Z,4.93
2022-12-23T16:05:23.935Z,5.05
2022-12-23T16:07:51.146Z,4.70
2022-12-23T16:10:22.370Z,5.10
2022-12-23T16:12:51.058Z,3.90
2022-12-23T16:15:21.465Z,5.40
2022-12-23T16:17:48.697Z,5.20
2022-12-23T16:20:26.890Z,6.07
2022-12-23T16:22:55.024Z,5.03
2022-12-23T16:25:26.483Z,5.50
2022-12-23T16:27:58.323Z,4.75
2022-12-23T16:30:31.253Z,4.87
2022-12-23T16:33:00.115Z,5.28
2022-12-23T16:35:38.488Z,4.05
2022-12-23T16:38:11.907Z,4.43
2022-12-23T16:40:39.161Z,5.18
2022-12-23T16:43:06.419Z,5.88
2022-12-23T16:45:34.290Z,4.88
2022-12-23T16:48:02.042Z,4.60
2022-12-23T16:50:29.219Z,4.45
2022-12-23T16:52:56.413Z,4.95
2022-12-23T16:55:23.568Z,5.25
2022-12-23T16:57:50.858Z,5.75
2022-12-23T17:00:19.393Z,4.85
2022-12-23T17:02:47.584Z,4.13
2022-12-23T17:05:16.217Z,3.92
2022-12-23T17:07:45.575Z,5.10
2022-12-23T17:10:13.701Z,3.65
2022-12-23T17:12:41.459Z,5.65
2022-12-23T17:15:09.335Z,6.75
2022-12-23T17:17:36.601Z,5.13
2022-12-23T17:20:03.959Z,5.00
2022-12-23T17:22:33.151Z,4.65
2022-12-23T17:25:00.416Z,4.03
2022-12-23T17:27:27.617Z,4.85
2022-12-23T17:29:54.822Z,5.95
2022-12-23T17:32:22.200Z,3.53
2022-12-23T17:34:49.504Z,7.70
2022-12-23T17:37:17.593Z,4.82
2022-12-23T17:39:45.342Z,6.30
2022-12-23T17:42:18.951Z,4.47
2022-12-23T17:44:50.716Z,5.00
2022-12-23T17:47:19.609Z,4.72
2022-12-23T17:49:47.293Z,4.05
2022-12-23T17:52:21.528Z,4.30
2022-12-23T17:54:49.337Z,4.82
2022-12-23T17:57:26.626Z,4.68
2022-12-23T17:59:54.821Z,3.75
2022-12-23T18:02:23.584Z,4.30
2022-12-23T18:05:00.474Z,5.15
2022-12-23T18:07:28.278Z,5.00
2022-12-23T18:09:55.446Z,4.40
2022-12-23T18:12:31.089Z,5.60
2022-12-23T18:14:58.399Z,5.00
2022-12-23T18:17:25.607Z,4.45
2022-12-23T18:19:53.043Z,4.85
2022-12-23T18:22:24.674Z,3.70
2022-12-23T18:24:56.904Z,5.07
2022-12-23T18:27:26.156Z,4.88
2022-12-23T18:29:53.300Z,4.45
2022-12-23T18:32:25.072Z,6.38
2022-12-23T18:34:52.889Z,4.33
2022-12-23T18:37:20.406Z,4.30
2022-12-23T18:39:47.980Z,4.80
2022-12-23T18:42:19.702Z,3.60
2022-12-23T18:44:48.345Z,5.57
2022-12-23T18:47:15.560Z,4.35
2022-12-23T18:49:43.010Z,2.80
2022-12-23T18:52:12.669Z,6.03
2022-12-23T18:54:40.507Z,4.75
2022-12-23T18:57:07.659Z,6.22
2022-12-23T18:59:37.605Z,4.97
2022-12-23T19:02:05.057Z,6.22
2022-12-23T19:04:32.335Z,6.18
2022-12-23T19:06:59.532Z,6.32
2022-12-23T19:09:26.772Z,5.60
2022-12-23T19:11:54.594Z,4.90
2022-12-23T19:14:21.836Z,4.07
2022-12-23T19:16:51.993Z,3.90
2022-12-23T19:19:19.759Z,3.67
2022-12-23T19:21:46.990Z,3.75
2022-12-23T19:24:14.184Z,4.38
2022-12-23T19:26:41.618Z,4.20
2022-12-23T19:29:09.154Z,4.63
2022-12-23T19:31:36.382Z,5.88
2022-12-23T19:34:03.678Z,4.45
2022-12-23T19:36:31.211Z,5.10
2022-12-23T19:38:58.697Z,4.93
2022-12-23T19:41:25.920Z,5.85
2022-12-23T19:43:53.124Z,4.50
2022-12-23T19:46:20.383Z,5.47
2022-12-23T19:48:53.484Z,5.22
2022-12-23T19:51:20.725Z,5.32
2022-12-23T19:53:49.821Z,5.88
2022-12-23T19:56:21.041Z,5.53
2022-12-23T19:58:48.529Z,4.90
2022-12-23T20:01:17.096Z,7.03
2022-12-23T20:03:44.855Z,7.28
2022-12-23T20:06:19.536Z,5.85
2022-12-23T20:08:48.217Z,5.53
2022-12-23T20:11:16.537Z,6.57
2022-12-23T20:13:44.124Z,4.43
2022-12-23T20:16:11.882Z,4.40
2022-12-23T20:18:39.155Z,5.13
2022-12-23T20:21:06.990Z,4.07
2022-12-23T20:23:34.314Z,6.05
2022-12-23T20:26:01.665Z,5.28
2022-12-23T20:28:29.224Z,5.00
2022-12-23T20:31:07.625Z,6.25
2022-12-23T20:33:38.902Z,4.15
2022-12-23T20:36:07.291Z,4.18
2022-12-23T20:38:34.982Z,5.40
2022-12-23T20:41:03.113Z,4.65
2022-12-23T20:43:30.525Z,3.13
2022-12-23T20:45:57.852Z,4.32
2022-12-23T20:48:29.943Z,3.00
2022-12-23T20:51:05.331Z,2.70
2022-12-23T20:53:32.574Z,2.95
2022-12-23T20:56:00.622Z,2.20
2022-12-23T20:58:46.836Z,2.28
2022-12-23T21:01:14.169Z,1.40
2022-12-23T21:03:42.378Z,1.08
2022-12-23T21:06:10.002Z,1.48
2022-12-23T21:08:38.127Z,2.03
2022-12-23T21:11:05.925Z,1.35
2022-12-23T21:13:33.618Z,1.90
2022-12-23T21:16:01.936Z,2.85
2022-12-23T21:18:29.339Z,4.15
2022-12-23T21:21:04.044Z,4.93
2022-12-23T21:23:31.625Z,5.32
2022-12-23T21:26:09.313Z,5.55
2022-12-23T21:28:37.586Z,3.10
2022-12-23T21:31:04.918Z,2.30
2022-12-23T21:33:32.129Z,2.85
2022-12-23T21:35:59.296Z,2.25
2022-12-23T21:38:26.562Z,2.63
2022-12-23T21:40:59.227Z,2.45
2022-12-23T21:45:57.976Z,3.15
2022-12-23T21:48:25.210Z,4.65
2022-12-23T21:50:52.649Z,3.65
2022-12-23T21:53:20.204Z,5.80
2022-12-23T21:55:47.433Z,5.85
2022-12-23T21:58:14.651Z,5.80
2022-12-23T22:00:44.861Z,5.65
2022-12-23T22:03:12.065Z,6.40
2022-12-23T22:05:39.217Z,6.20
2022-12-23T22:08:07.059Z,5.95
2022-12-23T22:10:34.252Z,5.50
2022-12-23T22:13:01.496Z,6.20
2022-12-23T22:15:28.657Z,6.18
2022-12-23T22:17:55.870Z,4.35
2022-12-23T22:20:23.159Z,6.82
2022-12-23T22:22:50.481Z,6.10
2022-12-23T22:25:17.744Z,4.93
2022-12-23T22:27:45.429Z,6.18
2022-12-23T22:30:12.676Z,7.00
2022-12-23T22:32:42.530Z,5.40
2022-12-23T22:35:10.177Z,7.22
2022-12-23T22:37:37.348Z,6.13
2022-12-23T22:40:05.043Z,7.65
2022-12-23T22:42:32.196Z,6.28
2022-12-23T22:44:59.348Z,7.72
2022-12-23T22:47:26.624Z,7.22
2022-12-23T22:49:53.917Z,6.50
2022-12-23T22:52:21.070Z,6.10
2022-12-23T22:54:48.219Z,5.00
2022-12-23T22:57:15.346Z,6.30
2022-12-23T22:59:42.462Z,6.32
2022-12-23T23:02:09.641Z,4.68
2022-12-23T23:04:36.883Z,6.32
2022-12-23T23:07:04.106Z,6.78
2022-12-23T23:09:31.265Z,6.30
2022-12-23T23:11:58.512Z,5.50
2022-12-23T23:14:25.715Z,5.53
2022-12-23T23:16:52.921Z,5.57
2022-12-23T23:19:20.512Z,5.63
2022-12-23T23:21:48.800Z,4.88
2022-12-23T23:24:16.018Z,5.05
2022-12-23T23:26:43.164Z,6.50
2022-12-23T23:29:10.306Z,6.70
2022-12-23T23:31:42.826Z,6.30
2022-12-23T23:34:11.237Z,5.97
2022-12-23T23:36:38.569Z,6.05
2022-12-23T23:39:05.820Z,4.95
2022-12-23T23:41:33.051Z,5.90
2022-12-23T23:44:00.229Z,5.07
2022-12-23T23:46:27.542Z,7.00
2022-12-23T23:48:54.774Z,4.50
2022-12-23T23:51:21.919Z,7.32
2022-12-23T23:53:49.329Z,7.47
2022-12-23T23:56:22.021Z,5.70
2022-12-23T23:58:52.142Z,5.97
